Time;durP1;ratioP1;P1;durP2;ratioP2;P2;SDS_P1;SDS_P2;PMS_P1;PMS_P2;Temp;Humidity;BMP_temperature;BMP_pressure;BME280_temperature;BME280_humidity;BME280_pressure;Samples;Min_cycle;Max_cycle;Signal;HPM_P1;HPM_P2
2022/06/29 00:00:21;;;;;;;7.37;6.75;;;;;;;23.88;66.77;100434.88;1646470;116;25963;-85
2022/06/29 00:03:51;;;;;;;6.83;6.28;;;;;;;23.76;66.77;100427.28;1722713;112;26033;-87
2022/06/29 00:07:33;;;;;;;6.92;6.33;;;;;;;23.78;66.94;100417.44;1719838;111;25956;-85
2022/06/29 00:11:04;;;;;;;9.23;6.70;;;;;;;23.81;66.87;100420.01;1720328;110;25975;-87
2022/06/29 00:15:09;;;;;;;7.03;6.53;;;;;;;23.83;66.96;100414.19;1736285;110;25975;-87
2022/06/29 00:19:07;;;;;;;6.78;6.12;;;;;;;23.79;66.97;100428.05;1726309;111;26020;-85
2022/06/29 00:22:49;;;;;;;9.98;7.17;;;;;;;23.66;67.20;100423.98;1733734;110;26098;-86
2022/06/29 00:26:21;;;;;;;9.80;7.83;;;;;;;23.67;67.43;100424.38;1728947;111;25893;-86
2022/06/29 00:30:26;;;;;;;;;;;;;;;;;;;;;
2022/06/29 00:34:36;;;;;;;8.70;7.90;;;;;;;23.51;67.71;100410.65;1686330;113;25820;-86
2022/06/29 00:38:16;;;;;;;;;;;;;;;;;;;;;
2022/06/29 00:41:55;;;;;;;9.68;8.65;;;;;;;23.54;68.13;100404.38;1682594;115;25962;-85
2022/06/29 00:45:29;;;;;;;9.75;8.95;;;;;;;23.56;68.24;100405.21;1691562;115;25988;-85
2022/06/29 00:48:56;;;;;;;14.68;8.75;;;;;;;23.49;68.28;100412.50;1713073;112;26167;-84
2022/06/29 00:52:29;;;;;;;9.05;8.23;;;;;;;23.44;68.59;100417.53;1720636;111;25978;-86
2022/06/29 00:56:08;;;;;;;;;;;;;;;;;;;;;
2022/06/29 01:03:07;;;;;;;12.25;9.88;;;;;;;23.45;68.94;100405.50;1755477;110;25978;-86
2022/06/29 01:10:43;;;;;;;12.40;11.00;;;;;;;23.70;68.78;100375.09;1791160;103;25938;-87
2022/06/29 01:14:31;;;;;;;12.58;11.48;;;;;;;23.82;68.37;100365.84;1740896;112;25960;-86
2022/06/29 01:17:50;;;;;;;13.98;12.80;;;;;;;23.96;68.14;100354.75;1756982;110;25888;-86
2022/06/29 01:21:11;;;;;;;12.50;11.05;;;;;;;24.06;67.73;100362.84;1722520;113;26230;-85
2022/06/29 01:24:48;;;;;;;;;;;;;;;;;;;;;
2022/06/29 01:28:12;;;;;;;12.53;11.33;;;;;;;24.12;67.30;100350.67;1752138;109;26131;-85
2022/06/29 01:31:55;;;;;;;12.95;11.35;;;;;;;24.18;67.18;100346.48;1729518;111;26077;-85
2022/06/29 01:35:37;;;;;;;15.08;12.95;;;;;;;24.15;66.97;100347.04;1670752;116;25882;-86
2022/06/29 01:39:49;;;;;;;14.20;12.98;;;;;;;24.20;66.91;100333.13;1681431;115;25975;-86
2022/06/29 01:43:11;;;;;;;15.53;14.00;;;;;;;24.30;66.72;100333.22;1674812;116;26133;-86
2022/06/29 01:47:39;;;;;;;15.10;13.60;;;;;;;24.33;66.48;100334.42;1677950;116;25933;-86
2022/06/29 01:56:40;;;;;;;;;;;;;;;;;;;;;
2022/06/29 02:00:16;;;;;;;14.90;13.50;;;;;;;24.47;65.74;100312.70;1686411;112;25973;-85
2022/06/29 02:04:12;;;;;;;14.58;13.30;;;;;;;24.46;65.59;100321.59;1693022;113;25994;-84
2022/06/29 02:07:43;;;;;;;11.40;10.10;;;;;;;24.46;65.33;100327.78;1746821;111;26602;-86
2022/06/29 02:11:13;;;;;;;11.15;10.15;;;;;;;24.28;65.27;100330.59;1762136;108;26132;-85
2022/06/29 02:14:43;;;;;;;11.65;10.55;;;;;;;24.32;65.03;100329.16;1801126;103;25870;-88
2022/06/29 02:18:08;;;;;;;10.38;9.50;;;;;;;24.28;64.79;100328.39;1857543;105;26014;-87
2022/06/29 02:21:37;;;;;;;10.82;9.80;;;;;;;24.26;64.78;100325.77;1854422;105;25787;-85
2022/06/29 02:25:10;;;;;;;9.75;8.90;;;;;;;24.26;64.55;100327.09;1867201;103;25836;-85
2022/06/29 02:28:45;;;;;;;9.48;8.53;;;;;;;24.18;64.58;100326.50;1867738;104;26249;-86
2022/06/29 02:36:09;;;;;;;9.78;8.83;;;;;;;24.13;64.44;100326.23;1914393;101;25876;-86
2022/06/29 02:39:39;;;;;;;9.05;8.15;;;;;;;24.07;64.33;100329.13;1937591;101;25867;-87
2022/06/29 02:43:08;;;;;;;9.55;7.95;;;;;;;23.79;64.43;100332.65;1941800;100;25779;-87
2022/06/29 02:46:40;;;;;;;11.20;8.05;;;;;;;23.68;64.94;100332.99;1871652;104;25971;-87
2022/06/29 02:50:00;;;;;;;9.60;7.80;;;;;;;23.76;64.89;100334.11;1939300;99;25762;-87
2022/06/29 02:53:55;;;;;;;8.38;7.45;;;;;;;23.73;64.84;100344.84;1979889;98;25455;-86
2022/06/29 02:57:32;;;;;;;7.90;7.30;;;;;;;23.76;64.90;100342.96;1854816;105;25995;-87
2022/06/29 03:00:55;;;;;;;8.90;8.08;;;;;;;23.78;64.79;100334.91;1851225;104;25897;-86
2022/06/29 03:04:35;;;;;;;8.88;8.15;;;;;;;23.68;64.68;100334.79;1856182;105;25778;-86
2022/06/29 03:11:54;;;;;;;11.55;8.25;;;;;;;23.73;64.75;100341.72;1829472;106;25444;-85
2022/06/29 03:15:34;;;;;;;9.55;8.75;;;;;;;23.83;64.50;100342.73;1843038;105;25922;-85
2022/06/29 03:19:12;;;;;;;9.78;8.98;;;;;;;23.85;64.29;100342.24;1826340;106;25863;-85
2022/06/29 03:23:03;;;;;;;9.23;8.33;;;;;;;23.83;64.38;100333.42;1836263;106;26084;-86
2022/06/29 03:26:33;;;;;;;11.10;8.95;;;;;;;23.88;64.40;100326.17;1837262;105;25876;-86
2022/06/29 03:30:42;;;;;;;11.78;8.38;;;;;;;23.94;64.16;100321.52;1815765;107;25898;-85
2022/06/29 03:38:06;;;;;;;11.22;10.13;;;;;;;23.96;64.03;100324.13;1795024;108;25959;-85
2022/06/29 03:41:33;;;;;;;10.53;9.53;;;;;;;23.84;64.12;100331.19;1791285;107;25956;-85
2022/06/29 03:45:17;;;;;;;13.28;9.85;;;;;;;23.84;64.16;100328.06;1792129;108;26033;-86
2022/06/29 03:52:17;;;;;;;11.03;9.67;;;;;;;23.84;64.18;100330.73;1843937;104;25769;-86
2022/06/29 03:56:09;;;;;;;;;;;;;;;;;;;;;
2022/06/29 03:59:37;;;;;;;12.20;9.98;;;;;;;23.65;64.63;100333.52;1791991;107;25848;-86
2022/06/29 04:03:30;;;;;;;12.73;10.93;;;;;;;23.55;64.87;100322.28;1794475;107;25968;-86
2022/06/29 04:06:55;;;;;;;11.78;10.68;;;;;;;23.36;64.98;100323.32;1809557;106;25886;-86
2022/06/29 04:10:28;;;;;;;11.33;10.13;;;;;;;23.22;65.51;100312.19;1797358;108;26064;-83
2022/06/29 04:14:41;;;;;;;11.70;10.55;;;;;;;23.29;65.85;100305.80;1790624;109;25798;-87
2022/06/29 04:18:19;;;;;;;11.20;10.13;;;;;;;23.40;65.82;100292.17;1757952;111;26025;-86
2022/06/29 04:22:07;;;;;;;11.48;10.58;;;;;;;23.60;65.52;100292.42;1758873;110;26016;-86
2022/06/29 04:25:45;;;;;;;10.95;9.95;;;;;;;23.64;65.24;100291.86;1760576;110;25515;-87
2022/06/29 04:29:22;;;;;;;11.85;10.63;;;;;;;23.78;65.07;100297.17;1751891;109;26088;-85
2022/06/29 04:33:07;;;;;;;13.85;9.35;;;;;;;23.88;64.72;100287.11;1783007;105;25829;-86
2022/06/29 04:36:39;;;;;;;15.00;9.88;;;;;;;23.95;64.53;100295.30;1792296;107;25761;-85
2022/06/29 04:40:00;;;;;;;10.75;9.03;;;;;;;24.07;64.36;100291.37;1745330;110;25959;-86
2022/06/29 04:44:15;;;;;;;14.28;9.20;;;;;;;24.14;64.07;100294.70;1736979;111;26387;-86
2022/06/29 04:48:02;;;;;;;10.35;9.23;;;;;;;24.16;64.04;100292.38;1731592;111;25994;-86
2022/06/29 04:51:33;;;;;;;12.88;8.50;;;;;;;24.15;63.88;100293.30;1733993;107;26121;-87
2022/06/29 04:55:02;;;;;;;11.20;9.28;;;;;;;24.20;63.77;100295.83;1812855;107;26160;-85
2022/06/29 04:58:41;;;;;;;9.70;8.50;;;;;;;24.22;63.56;100288.64;1819414;105;25912;-86
2022/06/29 05:02:09;;;;;;;11.15;9.05;;;;;;;24.28;63.44;100296.42;1819432;107;25887;-86
2022/06/29 05:05:30;;;;;;;10.55;8.85;;;;;;;24.24;63.44;100303.66;1817552;107;25442;-87
2022/06/29 05:09:00;;;;;;;9.00;8.25;;;;;;;24.17;63.46;100311.45;1818473;105;26018;-86
2022/06/29 05:12:29;;;;;;;9.50;8.65;;;;;;;24.18;63.42;100316.31;1795172;105;26008;-87
2022/06/29 05:16:09;;;;;;;9.55;8.75;;;;;;;24.24;63.41;100316.97;1871033;103;26019;-87
2022/06/29 05:19:44;;;;;;;10.78;9.10;;;;;;;24.26;63.18;100318.23;1868948;102;25948;-86
2022/06/29 05:23:39;;;;;;;;;;;;;;;;;;;;;
2022/06/29 05:26:54;;;;;;;9.33;8.40;;;;;;;24.37;63.18;100323.23;1849832;105;25850;-87
2022/06/29 05:30:24;;;;;;;8.93;7.90;;;;;;;24.35;62.93;100316.60;1756781;110;25471;-88
2022/06/29 05:33:55;;;;;;;;;;;;;;;24.38;62.89;100311.64;1831774;105;25932;-88
2022/06/29 05:37:54;;;;;;;11.65;9.00;;;;;;;24.48;62.76;100312.63;1842379;105;26052;-88
2022/06/29 05:41:19;;;;;;;9.60;8.80;;;;;;;24.47;62.53;100320.22;1772783;108;25949;-88
2022/06/29 05:45:03;;;;;;;;;;;;;;;;;;;;;
2022/06/29 05:48:28;;;;;;;11.33;10.00;;;;;;;24.40;62.55;100316.44;1770997;108;26372;-87
2022/06/29 05:52:31;;;;;;;12.53;11.28;;;;;;;24.26;62.69;100312.45;1772606;108;25866;-85
2022/06/29 05:55:48;;;;;;;15.45;10.30;;;;;;;24.30;62.84;100320.34;1744812;111;26125;-86
2022/06/29 05:59:23;;;;;;;10.82;9.30;;;;;;;24.28;62.53;100327.06;1695294;113;25960;-83
2022/06/29 06:03:10;;;;;;;15.72;9.88;;;;;;;24.26;62.73;100326.23;1754218;111;26036;-86
2022/06/29 06:06:32;;;;;;;11.30;10.40;;;;;;;24.35;62.67;100330.39;1753120;111;25958;-85
2022/06/29 06:09:55;;;;;;;9.53;8.90;;;;;;;24.39;62.30;100330.69;1705377;113;25888;-86
2022/06/29 06:13:18;;;;;;;8.95;8.25;;;;;;;24.49;62.21;100323.69;1696758;113;26301;-85
2022/06/29 06:16:49;;;;;;;11.43;9.80;;;;;;;24.56;61.93;100328.81;1746680;110;25904;-80
2022/06/29 06:20:18;;;;;;;10.03;8.73;;;;;;;24.66;62.03;100327.09;1772507;108;26073;-81
2022/06/29 06:27:39;;;;;;;10.72;8.38;;;;;;;25.11;61.52;100343.74;1846001;104;25906;-80
2022/06/29 06:31:14;;;;;;;9.38;8.20;;;;;;;25.01;61.28;100342.31;1764169;109;26054;-80
2022/06/29 06:35:04;;;;;;;8.88;7.97;;;;;;;25.15;61.33;100344.50;1797395;107;25951;-80
2022/06/29 06:38:13;;;;;;;10.65;9.60;;;;;;;25.19;60.85;100338.98;1791290;107;25883;-80
2022/06/29 06:42:00;;;;;;;10.28;9.43;;;;;;;25.13;61.03;100341.87;1798772;105;25883;-82
2022/06/29 06:49:24;;;;;;;14.65;9.78;;;;;;;25.15;61.15;100333.83;1702646;111;25894;-81
2022/06/29 06:53:01;;;;;;;13.88;9.70;;;;;;;25.30;61.01;100339.91;1713908;110;26533;-79
2022/06/29 06:56:23;;;;;;;10.55;9.50;;;;;;;25.35;60.53;100346.41;1741072;111;26011;-80
2022/06/29 07:00:13;;;;;;;15.63;10.35;;;;;;;25.23;60.63;100356.20;1740382;111;26003;-81
2022/06/29 07:03:46;;;;;;;15.08;10.00;;;;;;;25.17;60.67;100355.96;1738456;111;26162;-81
2022/06/29 07:07:46;;;;;;;;;;;;;;;;;;;;;
2022/06/29 07:11:16;;;;;;;12.95;10.35;;;;;;;25.17;60.58;100359.49;1753725;110;25848;-81
2022/06/29 07:18:23;;;;;;;13.90;9.30;;;;;;;25.16;60.78;100363.09;1745690;110;25991;-85
2022/06/29 07:22:09;;;;;;;;;;;;;;;24.99;60.42;100364.15;1740523;110;26307;-78
2022/06/29 07:25:40;;;;;;;9.60;8.48;;;;;;;24.57;60.85;100375.42;1780799;107;33082;-81
2022/06/29 07:29:11;;;;;;;10.00;9.20;;;;;;;24.35;61.62;100368.56;1759915;108;25913;-80
2022/06/29 07:32:42;;;;;;;11.08;8.68;;;;;;;24.57;61.77;100365.19;1777152;109;25861;-81
2022/06/29 07:36:33;;;;;;;;;;;;;;;;;;;;;
2022/06/29 07:40:47;;;;;;;9.78;8.48;;;;;;;24.96;61.20;100362.92;1768536;109;25854;-83
2022/06/29 07:44:12;;;;;;;10.63;9.73;;;;;;;24.82;60.87;100349.23;1781197;107;26051;-77
2022/06/29 07:48:07;;;;;;;;;;;;;;;;;;;;;
2022/06/29 07:51:42;;;;;;;;;;;;;;;;;;;;;
2022/06/29 07:55:15;;;;;;;13.20;9.88;;;;;;;24.55;61.57;100353.73;2065469;93;25789;-78
2022/06/29 07:58:47;;;;;;;12.03;9.60;;;;;;;24.66;61.57;100352.42;2069851;93;26104;-76
2022/06/29 08:02:33;;;;;;;10.58;9.68;;;;;;;24.84;61.48;100350.02;2069059;94;25864;-76
2022/06/29 08:06:09;;;;;;;9.93;9.18;;;;;;;24.82;61.22;100351.89;2068477;95;25757;-76
2022/06/29 08:10:31;;;;;;;12.80;9.40;;;;;;;24.89;61.08;100354.27;1990418;98;26557;-78
2022/06/29 08:14:00;;;;;;;10.25;9.20;;;;;;;24.85;60.94;100356.65;2062704;94;25762;-77
2022/06/29 08:17:49;;;;;;;9.63;8.83;;;;;;;24.95;60.97;100349.19;2061509;92;26265;-84
2022/06/29 08:21:46;;;;;;;11.57;10.30;;;;;;;25.06;60.57;100352.80;2065698;93;25812;-83
2022/06/29 08:25:19;;;;;;;10.20;9.15;;;;;;;24.94;60.29;100348.77;2091158;88;25888;-82
2022/06/29 08:28:40;;;;;;;12.05;9.98;;;;;;;24.82;60.63;100349.23;2113123;89;26048;-82
2022/06/29 08:36:00;;;;;;;15.58;10.20;;;;;;;24.78;60.72;100333.80;1952746;99;26036;-85
2022/06/29 08:39:43;;;;;;;13.68;10.65;;;;;;;24.68;60.76;100331.92;1952821;99;26714;-86
2022/06/29 08:43:22;;;;;;;13.65;11.03;;;;;;;24.60;61.09;100331.77;1918709;100;25881;-81
2022/06/29 08:46:49;;;;;;;11.60;10.63;;;;;;;24.53;61.26;100327.11;1895425;102;25638;-82
2022/06/29 08:50:23;;;;;;;14.23;10.50;;;;;;;24.43;61.24;100329.69;1879675;102;25979;-83
2022/06/29 08:54:01;;;;;;;11.85;9.95;;;;;;;24.41;61.40;100325.76;1772143;110;25698;-81
2022/06/29 09:01:10;;;;;;;11.33;9.03;;;;;;;24.88;61.38;100324.54;1774756;109;26696;-88
2022/06/29 09:04:48;;;;;;;10.30;9.40;;;;;;;25.25;60.85;100327.68;1723698;112;25985;-85
2022/06/29 09:08:37;;;;;;;10.23;9.33;;;;;;;25.39;60.04;100331.55;1791190;108;25860;-79
2022/06/29 09:15:53;;;;;;;10.90;8.93;;;;;;;25.40;59.67;100337.28;1759527;110;26214;-81
2022/06/29 09:19:33;;;;;;;;;;;;;;;;;;;;;
2022/06/29 09:22:55;;;;;;;14.65;8.68;;;;;;;25.60;59.17;100343.66;1777821;110;25840;-87
2022/06/29 09:26:49;;;;;;;10.28;9.18;;;;;;;25.51;59.28;100346.67;1768213;110;26036;-86
2022/06/29 09:30:44;;;;;;;10.72;9.73;;;;;;;25.56;59.13;100349.59;1728499;110;25774;-83
2022/06/29 09:34:37;;;;;;;10.53;9.65;;;;;;;25.62;59.24;100338.67;1735505;111;26049;-82
2022/06/29 09:38:35;;;;;;;10.48;7.62;;;;;;;25.86;59.12;100349.34;1728619;112;26265;-83
2022/06/29 09:42:24;;;;;;;10.80;8.28;;;;;;;26.04;58.63;100344.58;1727427;111;25833;-86
2022/06/29 09:46:00;;;;;;;8.68;7.90;;;;;;;26.26;58.27;100343.23;1751725;110;26267;-85
2022/06/29 09:50:06;;;;;;;11.05;7.60;;;;;;;26.47;57.81;100341.92;1762925;108;25917;-81
2022/06/29 09:53:41;;;;;;;8.45;7.65;;;;;;;26.62;57.40;100339.94;1834050;106;26259;-85
2022/06/29 09:57:20;;;;;;;9.17;7.50;;;;;;;26.79;56.92;100342.73;1832528;105;25965;-85
2022/06/29 10:04:34;;;;;;;8.43;7.72;;;;;;;27.07;56.20;100350.90;1904538;98;25628;-84
2022/06/29 10:08:10;;;;;;;8.58;7.65;;;;;;;27.10;55.79;100353.44;1955694;97;26112;-86
2022/06/29 10:16:27;;;;;;;7.55;6.85;;;;;;;27.03;55.76;100358.64;2076406;90;25882;-77
2022/06/29 10:20:30;;;;;;;7.70;7.05;;;;;;;26.94;55.51;100361.75;2057629;94;25837;-78
2022/06/29 10:24:20;;;;;;;9.98;7.50;;;;;;;26.87;55.32;100366.97;2039731;92;25877;-81
2022/06/29 10:28:16;;;;;;;8.48;7.78;;;;;;;26.67;54.99;100363.83;2075687;92;26126;-76
2022/06/29 10:36:08;;;;;;;8.30;7.65;;;;;;;26.59;55.66;100370.38;1971071;98;26081;-77
2022/06/29 10:40:13;;;;;;;8.60;7.83;;;;;;;26.65;55.50;100353.18;1913990;101;26032;-83
2022/06/29 10:43:38;;;;;;;7.62;6.58;;;;;;;26.70;55.09;100353.87;1964422;98;25841;-81
2022/06/29 10:47:25;;;;;;;8.03;7.33;;;;;;;26.80;55.43;100347.65;2004780;96;26117;-84
2022/06/29 10:50:52;;;;;;;7.95;7.17;;;;;;;27.27;55.08;100341.96;1971677;97;25917;-87
2022/06/29 10:54:37;;;;;;;7.37;6.87;;;;;;;27.72;54.22;100340.28;1893951;101;25798;-88
2022/06/29 10:58:06;;;;;;;7.87;7.00;;;;;;;28.06;53.29;100341.34;1874591;103;25936;-84
2022/06/29 11:01:33;;;;;;;6.95;6.35;;;;;;;28.18;52.79;100341.19;1900619;101;35004;-84
2022/06/29 11:12:23;;;;;;;12.78;6.97;;;;;;;28.42;52.08;100341.34;2050238;95;25358;-85
2022/06/29 11:19:47;;;;;;;7.92;7.25;;;;;;;28.58;51.56;100335.17;1976711;97;32620;-84
2022/06/29 11:23:42;;;;;;;7.62;6.87;;;;;;;28.95;51.29;100342.15;1960665;99;25920;-85
2022/06/29 11:27:13;;;;;;;7.65;7.00;;;;;;;29.17;50.74;100339.23;1934829;100;25728;-82
2022/06/29 11:31:16;;;;;;;7.60;7.03;;;;;;;29.37;50.59;100336.31;1940913;99;25905;-86
2022/06/29 11:34:36;;;;;;;6.95;6.45;;;;;;;29.56;50.00;100330.77;1904381;102;25973;-83
2022/06/29 11:38:08;;;;;;;8.35;6.03;;;;;;;29.78;49.58;100339.01;1868951;102;25931;-83
2022/06/29 11:46:22;;;;;;;10.32;6.50;;;;;;;30.34;49.16;100323.64;1888138;103;25822;-84
2022/06/29 11:50:28;;;;;;;6.85;6.25;;;;;;;30.61;48.40;100327.44;1842900;104;26002;-84
2022/06/29 12:03:26;;;;;;;;;;;;;;;;;;;;;
2022/06/29 12:07:31;;;;;;;;;;;;;;;;;;;;;
2022/06/29 12:11:06;;;;;;;6.85;6.28;;;;;;;31.82;45.65;100313.09;1893887;102;25879;-86
2022/06/29 12:14:46;;;;;;;5.53;5.00;;;;;;;32.06;45.01;100310.14;1866895;103;26111;-85
2022/06/29 12:18:25;;;;;;;11.10;5.30;;;;;;;32.24;44.35;100294.56;1881848;101;25883;-84
2022/06/29 12:22:00;;;;;;;7.83;5.60;;;;;;;32.37;44.10;100286.50;1944446;99;25826;-85
2022/06/29 12:33:09;;;;;;;6.20;4.95;;;;;;;32.90;42.65;100284.09;1917124;100;25748;-84
2022/06/29 12:37:04;;;;;;;;;;;;;;;;;;;;;
2022/06/29 12:45:35;;;;;;;9.23;5.00;;;;;;;33.33;41.44;100263.97;1951069;99;25779;-84
2022/06/29 12:54:13;;;;;;;7.53;4.65;;;;;;;33.60;40.95;100243.52;1907935;96;25938;-86
2022/06/29 12:58:12;;;;;;;4.90;4.40;;;;;;;33.80;40.52;100248.29;1888092;102;25863;-86
2022/06/29 13:01:44;;;;;;;4.05;3.50;;;;;;;33.94;40.36;100241.83;1853115;101;25996;-85
2022/06/29 13:05:37;;;;;;;4.30;3.87;;;;;;;34.14;39.86;100232.22;1847548;105;25807;-85
2022/06/29 13:09:03;;;;;;;6.03;4.17;;;;;;;34.21;39.37;100228.05;1852048;104;25763;-85
2022/06/29 13:17:17;;;;;;;5.67;3.75;;;;;;;34.54;38.70;100220.52;1855603;103;26379;-84
2022/06/29 13:21:00;;;;;;;3.60;3.40;;;;;;;34.72;38.35;100217.32;1852437;104;25808;-82
2022/06/29 13:24:29;;;;;;;5.20;3.75;;;;;;;34.85;37.70;100219.91;1825375;105;25726;-87
2022/06/29 13:28:03;;;;;;;4.53;3.17;;;;;;;34.92;37.20;100215.22;1831195;105;26050;-82
2022/06/29 13:31:40;;;;;;;6.12;3.47;;;;;;;34.99;36.78;100216.94;1887549;102;26034;-83
2022/06/29 13:35:17;;;;;;;5.58;3.05;;;;;;;35.06;36.74;100214.63;1875804;103;25961;-85
2022/06/29 13:39:00;;;;;;;3.08;2.87;;;;;;;35.11;36.44;100205.14;1873550;103;25903;-84
2022/06/29 13:42:30;;;;;;;;;;;;;;;;;;;;;
2022/06/29 13:45:53;;;;;;;9.03;3.35;;;;;;;35.27;36.19;100205.22;1838031;105;25982;-82
2022/06/29 13:49:37;;;;;;;3.27;3.08;;;;;;;35.28;36.00;100213.74;1825658;106;25886;-81
2022/06/29 13:52:57;;;;;;;4.10;3.27;;;;;;;35.06;35.84;100200.58;1810918;107;26103;-86
2022/06/29 13:56:36;;;;;;;4.50;2.90;;;;;;;34.70;36.03;100191.73;1817486;103;26073;-83
2022/06/29 14:00:13;;;;;;;3.37;3.05;;;;;;;34.32;36.26;100187.97;1878889;103;25886;-85
2022/06/29 14:03:40;;;;;;;3.35;3.05;;;;;;;33.91;36.10;100189.32;1876792;102;25975;-84
2022/06/29 14:07:24;;;;;;;5.53;2.80;;;;;;;33.49;36.96;100187.57;1879798;103;25848;-83
2022/06/29 14:11:04;;;;;;;6.33;3.37;;;;;;;33.32;37.54;100186.09;1880401;103;26105;-82
2022/06/29 14:14:43;;;;;;;4.50;3.20;;;;;;;33.19;37.85;100185.77;1812118;106;25965;-82
2022/06/29 14:18:19;;;;;;;4.58;3.00;;;;;;;33.06;38.01;100188.02;1840548;104;25919;-83
2022/06/29 14:22:11;;;;;;;;;;;;;;;;;;;;;
2022/06/29 14:25:31;;;;;;;3.00;2.72;;;;;;;32.53;38.38;100179.22;1846643;104;25943;-86
2022/06/29 14:29:08;;;;;;;3.60;3.30;;;;;;;32.44;38.75;100178.06;;;;
2022/06/29 14:32:37;;;;;;;4.67;3.60;;;;;;;32.37;39.12;100180.78;1804835;106;25847;-82
2022/06/29 14:36:18;;;;;;;5.62;3.05;;;;;;;32.34;39.18;100182.84;1811362;106;25870;-83
2022/06/29 14:40:09;;;;;;;3.80;3.50;;;;;;;32.25;39.30;100180.78;1788111;106;25989;-84
2022/06/29 14:43:57;;;;;;;5.03;3.17;;;;;;;32.13;39.55;100171.69;1806004;106;25809;-86
2022/06/29 14:51:17;;;;;;;;;;;;;;;32.01;39.86;100172.56;1837252;105;25915;-83
2022/06/29 14:54:55;;;;;;;3.77;2.52;;;;;;;31.90;39.41;100167.91;1800269;105;25975;-83
2022/06/29 14:58:18;;;;;;;2.50;2.30;;;;;;;31.72;39.49;100164.59;1822216;106;25804;-82
2022/06/29 15:02:01;;;;;;;4.33;2.45;;;;;;;31.66;39.07;100155.59;1818198;107;25878;-84
2022/06/29 15:05:27;;;;;;;2.77;2.58;;;;;;;31.61;39.05;100158.59;1815632;106;25809;-82
2022/06/29 15:09:13;;;;;;;5.37;2.50;;;;;;;31.50;39.08;100147.67;1748117;110;25903;-82
2022/06/29 15:13:05;;;;;;;;;;;;;;;;;;;;;
2022/06/29 15:16:26;;;;;;;3.37;2.87;;;;;;;31.21;39.81;100147.74;1748645;110;25833;-84
2022/06/29 15:20:03;;;;;;;3.85;2.80;;;;;;;31.18;40.26;100149.28;1761500;105;25758;-83
2022/06/29 15:23:45;;;;;;;;;;;;;;;;;;;;;
2022/06/29 15:27:13;;;;;;;4.15;2.72;;;;;;;31.24;40.67;100155.63;1884776;103;26418;-84
2022/06/29 15:31:05;;;;;;;;;;;;;;;;;;;;;
2022/06/29 15:38:45;;;;;;;5.60;2.95;;;;;;;31.13;41.03;100154.62;1822828;106;25914;-82
2022/06/29 15:42:23;;;;;;;4.53;3.33;;;;;;;31.04;41.14;100146.64;1856077;103;25774;-84
2022/06/29 15:45:59;;;;;;;4.05;3.15;;;;;;;30.94;41.38;100132.91;1820225;106;25777;-82
2022/06/29 15:49:33;;;;;;;6.30;3.15;;;;;;;30.86;41.64;100130.36;1823392;106;25938;-83
2022/06/29 15:57:16;;;;;;;3.33;3.02;;;;;;;30.72;41.95;100135.25;1780503;109;26038;-82
2022/06/29 16:00:48;;;;;;;3.05;2.80;;;;;;;30.64;42.05;100141.10;1775873;109;25797;-82
2022/06/29 16:04:15;;;;;;;6.30;2.87;;;;;;;30.62;42.19;100142.19;1766322;107;25920;-83
2022/06/29 16:08:02;;;;;;;3.47;3.17;;;;;;;30.54;42.27;100135.92;1826815;106;25886;-84
2022/06/29 16:12:23;;;;;;;3.08;2.85;;;;;;;30.51;42.41;100132.08;1848973;104;26159;-83
2022/06/29 16:19:57;;;;;;;3.45;3.15;;;;;;;30.43;42.33;100114.23;1853472;103;25381;-83
2022/06/29 16:27:22;;;;;;;3.90;2.87;;;;;;;30.31;42.20;100110.50;1803238;106;27044;-82
2022/06/29 16:35:16;;;;;;;5.67;3.22;;;;;;;30.17;41.87;100092.48;1763412;109;25885;-82
2022/06/29 16:39:09;;;;;;;;;;;;;;;;;;;;;
2022/06/29 16:42:41;;;;;;;3.37;3.10;;;;;;;30.15;41.92;100083.67;1781278;102;26145;-82
2022/06/29 16:49:40;;;;;;;4.75;3.80;;;;;;;30.09;42.31;100072.80;1802916;107;33271;-82
2022/06/29 16:53:23;;;;;;;3.67;3.30;;;;;;;30.05;42.56;100082.02;1816829;106;25808;-81
2022/06/29 16:56:56;;;;;;;4.37;3.50;;;;;;;29.99;42.78;100074.34;1829225;105;25839;-82
2022/06/29 17:16:26;;;;;;;8.23;4.90;;;;;;;29.78;43.64;100065.78;1812963;106;25935;-82
2022/06/29 17:20:30;;;;;;;6.30;4.47;;;;;;;29.70;43.78;100061.37;1798637;108;25827;-82
2022/06/29 17:28:59;;;;;;;;;;;;;;;;;;;;;
2022/06/29 17:36:47;;;;;;;5.33;3.92;;;;;;;29.54;44.16;100070.79;1910384;101;25973;-85
2022/06/29 17:40:27;;;;;;;5.97;4.65;;;;;;;29.50;44.19;100070.59;1895401;102;26004;-83
2022/06/29 17:47:38;;;;;;;5.83;4.00;;;;;;;29.34;44.33;100065.27;1877479;103;25954;-83
2022/06/29 17:51:13;;;;;;;5.85;4.05;;;;;;;29.25;44.56;100075.68;1898675;102;25798;-83
2022/06/29 17:54:50;;;;;;;5.00;4.58;;;;;;;29.14;44.90;100090.59;1912796;102;25765;-82
2022/06/29 18:07:24;;;;;;;;;;;;;;;;;;;;;
2022/06/29 18:28:37;;;;;;;7.10;4.92;;;;;;;28.56;46.17;100099.73;1735404;111;26231;-81
2022/06/29 18:36:05;;;;;;;;;;;;;;;;;;;;;
2022/06/29 18:44:29;;;;;;;6.80;4.92;;;;;;;28.32;46.99;100118.00;1739778;111;26226;-82
2022/06/29 18:48:09;;;;;;;5.28;4.78;;;;;;;28.24;47.16;100125.09;1727311;114;25468;-82
2022/06/29 18:52:03;;;;;;;7.70;5.72;;;;;;;28.17;47.24;100125.89;1752388;111;26291;-82
2022/06/29 18:55:49;;;;;;;;;;;;;;;;;;;;;
2022/06/29 18:59:16;;;;;;;5.60;4.40;;;;;;;28.07;47.77;100146.09;1765689;107;26097;-82
2022/06/29 19:06:34;;;;;;;5.65;5.15;;;;;;;28.04;48.15;100144.05;1812588;105;25870;-77
2022/06/29 19:13:39;;;;;;;6.05;5.28;;;;;;;28.09;48.31;100139.33;1816148;106;25945;-75
2022/06/29 19:17:10;;;;;;;6.55;4.95;;;;;;;28.08;48.46;100133.55;1813567;106;26067;-78
2022/06/29 19:20:47;;;;;;;5.58;5.08;;;;;;;28.05;48.52;100131.92;1813119;106;25911;-75
2022/06/29 19:24:09;;;;;;;7.15;4.80;;;;;;;28.00;48.65;100126.78;1766407;109;26702;-75
2022/06/29 19:27:47;;;;;;;5.55;5.10;;;;;;;27.98;48.86;100115.78;1771817;109;25996;-75
2022/06/29 19:31:13;;;;;;;9.63;5.17;;;;;;;27.94;48.96;100110.16;1783061;107;25940;-77
2022/06/29 19:34:47;;;;;;;8.78;4.95;;;;;;;27.92;49.00;100102.70;1817711;106;25929;-76
2022/06/29 19:38:11;;;;;;;6.05;5.08;;;;;;;27.91;49.09;100108.98;1820834;107;25753;-77
2022/06/29 19:41:36;;;;;;;5.22;4.83;;;;;;;27.88;49.10;100113.19;1816207;107;45845;-79
2022/06/29 19:45:14;;;;;;;5.20;4.70;;;;;;;27.84;49.22;100112.94;1843217;105;25813;-79
2022/06/29 19:48:53;;;;;;;5.45;4.90;;;;;;;27.82;49.21;100113.03;1929354;98;25947;-78
2022/06/29 19:52:20;;;;;;;6.30;5.03;;;;;;;27.80;49.18;100115.39;1951269;99;25753;-79
2022/06/29 19:56:02;;;;;;;7.33;5.70;;;;;;;27.78;49.19;100115.00;1929330;99;25940;-78
2022/06/29 20:03:17;;;;;;;;;;;;;;;27.68;49.32;100112.38;1964079;100;25839;-79
2022/06/29 20:06:56;;;;;;;7.45;4.85;;;;;;;27.66;49.51;100099.52;1886252;101;26628;-86
2022/06/29 20:11:03;;;;;;;5.25;4.70;;;;;;;27.47;49.71;100102.73;1840936;104;26372;-83
2022/06/29 20:15:06;;;;;;;6.92;5.30;;;;;;;27.27;50.03;100099.28;1796822;108;25501;-84
2022/06/29 20:18:40;;;;;;;5.28;4.87;;;;;;;27.16;50.37;100094.91;1803338;107;25932;-82
2022/06/29 20:22:11;;;;;;;5.12;4.60;;;;;;;27.05;50.78;100095.89;1823853;106;25464;-78
2022/06/29 20:29:27;;;;;;;5.70;5.08;;;;;;;27.08;50.86;100107.31;1795941;107;26001;-78
2022/06/29 20:37:04;;;;;;;;;;;;;;;;;;;;;
2022/06/29 20:41:43;;;;;;;6.25;5.25;;;;;;;27.02;51.23;100112.95;1728445;110;26161;-83
2022/06/29 20:45:27;;;;;;;;;;;;;;;27.01;51.69;100123.75;1699009;114;26410;-78
2022/06/29 20:49:01;;;;;;;6.15;5.65;;;;;;;26.85;52.08;100127.14;1698076;115;26651;-79
2022/06/29 20:52:36;;;;;;;7.87;5.20;;;;;;;26.75;52.23;100124.98;1694915;111;26162;-79
2022/06/29 21:01:40;;;;;;;;;;;;;;;;;;;;;
2022/06/29 21:05:36;;;;;;;;;;;;;;;;;;;;;
2022/06/29 21:09:28;;;;;;;5.92;5.10;;;;;;;26.69;52.68;100124.80;1682968;115;26059;-83
2022/06/29 21:18:21;;;;;;;7.22;5.17;;;;;;;26.61;52.63;100121.63;1701485;114;25937;-84
2022/06/29 21:22:21;;;;;;;;;;;;;;;;;;;;;
2022/06/29 21:37:05;;;;;;;;;;;;;;;;;;;;;
2022/06/29 21:40:57;;;;;;;7.75;5.50;;;;;;;26.24;53.52;100117.95;1666215;112;25983;-77
2022/06/29 21:44:28;;;;;;;5.90;5.47;;;;;;;26.18;53.81;100118.69;1709021;112;25973;-77